createdAt,value
2022-10-17T00:02:25.726Z,25.27
2022-10-17T00:04:52.670Z,23.55
2022-10-17T00:07:19.671Z,26.60
2022-10-17T00:09:46.783Z,24.73
2022-10-17T00:12:13.706Z,21.92
2022-10-17T00:14:40.715Z,25.98
2022-10-17T00:17:07.795Z,26.58
2022-10-17T00:19:34.709Z,27.52
2022-10-17T00:22:01.716Z,25.00
2022-10-17T00:24:31.178Z,22.23
2022-10-17T00:26:58.057Z,21.70
2022-10-17T00:29:25.047Z,26.35
2022-10-17T00:31:56.256Z,24.92
2022-10-17T00:34:23.963Z,24.92
2022-10-17T00:36:50.909Z,24.30
2022-10-17T00:39:18.050Z,26.92
2022-10-17T00:41:45.100Z,24.23
2022-10-17T00:44:30.170Z,23.73
2022-10-17T00:46:58.931Z,26.25
2022-10-17T00:49:29.099Z,26.27
2022-10-17T00:52:06.634Z,22.25
2022-10-17T00:54:38.162Z,24.85
2022-10-17T00:57:05.311Z,27.92
2022-10-17T00:59:36.149Z,23.90
2022-10-17T01:04:29.889Z,27.67
2022-10-17T01:06:56.823Z,27.42
2022-10-17T01:09:24.546Z,24.85
2022-10-17T01:12:13.195Z,25.85
2022-10-17T01:14:49.268Z,25.95
2022-10-17T01:17:43.872Z,26.20
2022-10-17T01:20:25.934Z,26.00
2022-10-17T01:22:58.689Z,26.67
2022-10-17T01:25:51.101Z,25.55
2022-10-17T01:31:20.933Z,25.23
2022-10-17T01:33:53.587Z,28.13
2022-10-17T01:36:49.694Z,23.35
2022-10-17T01:39:30.125Z,27.33
2022-10-17T01:45:04.009Z,28.75
2022-10-17T01:47:34.010Z,27.60
2022-10-17T01:50:10.975Z,28.67
2022-10-17T01:52:45.381Z,27.02
2022-10-17T01:55:26.631Z,22.50
2022-10-17T01:57:58.721Z,26.67
2022-10-17T02:00:28.034Z,25.38
2022-10-17T02:03:02.872Z,27.05
2022-10-17T02:05:38.095Z,24.38
2022-10-17T02:08:05.857Z,26.92
2022-10-17T02:10:52.302Z,24.85
2022-10-17T02:13:37.417Z,23.08
2022-10-17T02:16:04.290Z,26.40
2022-10-17T02:18:55.514Z,25.98
2022-10-17T02:21:51.621Z,25.10
2022-10-17T02:24:29.162Z,24.33
2022-10-17T02:27:03.711Z,25.13
2022-10-17T02:29:43.162Z,25.48
2022-10-17T02:32:18.223Z,27.20
2022-10-17T02:34:52.480Z,25.45
2022-10-17T02:37:26.095Z,25.65
2022-10-17T02:39:54.973Z,26.13
2022-10-17T02:42:25.082Z,27.92
2022-10-17T02:44:54.252Z,26.45
2022-10-17T02:47:27.803Z,27.98
2022-10-17T02:49:57.113Z,26.42
2022-10-17T02:52:48.808Z,23.98
2022-10-17T02:55:24.757Z,26.25
2022-10-17T02:57:56.459Z,24.95
2022-10-17T03:00:25.403Z,24.45
2022-10-17T03:02:54.413Z,25.73
2022-10-17T03:05:24.294Z,23.40
2022-10-17T03:07:52.010Z,22.17
2022-10-17T03:10:20.025Z,22.45
2022-10-17T03:12:47.227Z,25.63
2022-10-17T03:15:15.445Z,24.17
2022-10-17T03:17:42.491Z,25.45
2022-10-17T03:20:10.046Z,26.20
2022-10-17T03:22:37.068Z,27.98
2022-10-17T03:25:04.279Z,35.22
2022-10-17T03:27:31.641Z,35.40
2022-10-17T03:29:59.093Z,32.03
2022-10-17T03:32:26.057Z,31.05
2022-10-17T03:34:53.001Z,27.58
2022-10-17T03:37:19.865Z,27.33
2022-10-17T03:39:46.804Z,26.90
2022-10-17T03:42:13.780Z,28.63
2022-10-17T03:44:40.702Z,30.80
2022-10-17T03:47:09.318Z,31.17
2022-10-17T03:49:38.940Z,31.70
2022-10-17T03:52:06.086Z,30.17
2022-10-17T03:54:32.910Z,33.58
2022-10-17T03:56:59.819Z,35.40
2022-10-17T03:59:26.760Z,36.15
2022-10-17T04:01:53.910Z,27.17
2022-10-17T04:04:21.885Z,30.48
2022-10-17T04:06:48.985Z,26.67
2022-10-17T04:09:16.182Z,28.63
2022-10-17T04:11:43.115Z,29.40
2022-10-17T04:14:10.753Z,28.90
2022-10-17T04:16:38.931Z,27.52
2022-10-17T04:19:06.045Z,33.15
2022-10-17T04:21:32.976Z,29.38
2022-10-17T04:24:01.398Z,33.60
2022-10-17T04:26:28.649Z,30.15
2022-10-17T04:28:55.637Z,33.25
2022-10-17T04:31:22.627Z,33.50
2022-10-17T04:33:50.988Z,29.38
2022-10-17T04:36:20.150Z,31.02
2022-10-17T04:38:47.278Z,26.42
2022-10-17T04:41:17.628Z,27.48
2022-10-17T04:43:48.419Z,31.00
2022-10-17T04:46:18.212Z,33.05
2022-10-17T04:48:45.384Z,33.15
2022-10-17T04:51:19.636Z,35.00
2022-10-17T04:53:48.892Z,33.85
2022-10-17T04:56:18.404Z,29.95
2022-10-17T04:58:46.400Z,32.05
2022-10-17T05:01:18.530Z,30.20
2022-10-17T05:03:46.382Z,29.27
2022-10-17T05:06:20.985Z,31.52
2022-10-17T05:08:48.699Z,30.45
2022-10-17T05:11:19.583Z,28.98
2022-10-17T05:13:54.062Z,26.27
2022-10-17T05:16:22.070Z,32.50
2022-10-17T05:18:53.868Z,29.27
2022-10-17T05:21:22.226Z,35.95
2022-10-17T05:23:49.853Z,35.00
2022-10-17T05:26:17.560Z,33.13
2022-10-17T05:28:45.857Z,33.10
2022-10-17T05:31:13.539Z,30.35
2022-10-17T05:33:41.114Z,29.42
2022-10-17T05:36:08.856Z,31.00
2022-10-17T05:38:36.192Z,34.10
2022-10-17T05:41:05.966Z,31.55
2022-10-17T05:43:34.409Z,30.02
2022-10-17T05:46:06.434Z,32.58
2022-10-17T05:48:33.661Z,34.17
2022-10-17T05:51:03.142Z,27.63
2022-10-17T05:53:34.804Z,29.70
2022-10-17T05:56:05.672Z,30.95
2022-10-17T06:01:16.889Z,27.17
2022-10-17T06:03:43.794Z,33.35
2022-10-17T06:06:12.761Z,26.77
2022-10-17T06:08:39.986Z,28.15
2022-10-17T06:11:09.939Z,31.48
2022-10-17T06:16:05.914Z,29.63
2022-10-17T06:18:33.232Z,28.52
2022-10-17T06:21:11.602Z,26.85
2022-10-17T06:23:38.930Z,27.20
2022-10-17T06:26:07.131Z,32.95
2022-10-17T06:28:34.871Z,28.00
2022-10-17T06:31:06.864Z,30.80
2022-10-17T06:33:33.953Z,29.42
2022-10-17T06:36:00.961Z,30.35
2022-10-17T06:38:28.298Z,28.10
2022-10-17T06:40:57.768Z,25.65
2022-10-17T06:43:27.808Z,26.23
2022-10-17T06:45:55.053Z,26.35
2022-10-17T06:48:22.067Z,22.88
2022-10-17T06:50:48.993Z,29.13
2022-10-17T06:53:15.947Z,23.77
2022-10-17T06:55:43.232Z,27.92
2022-10-17T06:58:14.287Z,27.92
2022-10-17T07:00:41.357Z,27.98
2022-10-17T07:03:08.472Z,25.00
2022-10-17T07:05:35.857Z,25.35
2022-10-17T07:08:02.764Z,27.50
2022-10-17T07:10:29.970Z,24.25
2022-10-17T07:12:56.918Z,26.00
2022-10-17T07:15:23.860Z,26.52
2022-10-17T07:17:51.154Z,26.23
2022-10-17T07:20:18.107Z,23.92
2022-10-17T07:22:45.051Z,24.27
2022-10-17T07:25:12.062Z,26.52
2022-10-17T07:27:38.986Z,25.92
2022-10-17T07:30:06.577Z,27.75
2022-10-17T07:32:33.820Z,26.27
2022-10-17T07:35:00.740Z,23.80
2022-10-17T07:37:28.094Z,23.45
2022-10-17T07:39:56.857Z,22.48
2022-10-17T07:42:23.959Z,22.38
2022-10-17T07:44:51.480Z,24.35
2022-10-17T07:47:18.437Z,24.05
2022-10-17T07:49:45.738Z,22.63
2022-10-17T07:52:14.014Z,21.92
2022-10-17T07:54:41.720Z,22.70
2022-10-17T07:57:09.214Z,21.67
2022-10-17T07:59:38.345Z,21.45
2022-10-17T08:02:05.699Z,22.20
2022-10-17T08:04:32.707Z,20.10
2022-10-17T08:07:18.314Z,21.02
2022-10-17T08:09:47.482Z,20.90
2022-10-17T08:12:15.532Z,20.23
2022-10-17T08:14:43.814Z,21.30
2022-10-17T08:17:11.006Z,18.95
2022-10-17T08:19:41.599Z,19.70
2022-10-17T08:22:08.788Z,20.05
2022-10-17T08:24:36.021Z,18.73
2022-10-17T08:27:04.389Z,19.20
2022-10-17T08:29:33.241Z,18.52
2022-10-17T08:32:01.846Z,20.35
2022-10-17T08:34:29.479Z,20.05
2022-10-17T08:36:56.630Z,18.42
2022-10-17T08:39:23.646Z,18.80
2022-10-17T08:42:08.578Z,18.95
2022-10-17T08:45:14.996Z,17.15
2022-10-17T08:47:45.926Z,16.98
2022-10-17T08:50:33.616Z,17.50
2022-10-17T08:53:18.244Z,16.40
2022-10-17T08:55:48.055Z,17.60
2022-10-17T08:58:34.333Z,18.15
2022-10-17T09:01:12.857Z,18.45
2022-10-17T09:04:18.463Z,19.10
2022-10-17T09:07:00.271Z,19.13
2022-10-17T09:09:44.995Z,18.02
2022-10-17T09:12:24.305Z,18.58
2022-10-17T09:15:09.661Z,18.30
2022-10-17T09:18:24.229Z,18.15
2022-10-17T09:21:10.449Z,17.08
2022-10-17T09:23:46.142Z,16.63
2022-10-17T09:26:13.557Z,16.55
2022-10-17T09:28:42.547Z,18.17
2022-10-17T09:31:20.446Z,18.33
2022-10-17T09:33:54.330Z,16.88
2022-10-17T09:36:27.801Z,17.30
2022-10-17T09:39:00.972Z,18.42
2022-10-17T09:41:48.493Z,16.23
2022-10-17T09:44:26.016Z,17.67
2022-10-17T09:47:18.658Z,18.02
2022-10-17T09:49:48.298Z,18.15
2022-10-17T09:52:22.579Z,19.58
2022-10-17T09:54:56.989Z,18.75
2022-10-17T09:57:24.236Z,17.30
2022-10-17T10:00:04.572Z,17.05
2022-10-17T10:02:33.902Z,19.15
2022-10-17T10:05:06.911Z,17.38
2022-10-17T10:07:37.834Z,17.30
2022-10-17T10:10:24.333Z,17.17
2022-10-17T10:13:28.285Z,15.77
2022-10-17T10:16:14.818Z,16.05
2022-10-17T10:18:41.753Z,16.00
2022-10-17T10:21:16.022Z,16.33
2022-10-17T10:23:45.023Z,16.63
2022-10-17T10:26:38.853Z,16.58
2022-10-17T10:29:21.738Z,16.52
2022-10-17T10:31:50.129Z,15.85
2022-10-17T10:34:30.472Z,15.77
2022-10-17T10:37:02.127Z,16.15
2022-10-17T10:39:41.936Z,16.05
2022-10-17T10:42:20.428Z,15.43
2022-10-17T10:44:48.526Z,15.90
2022-10-17T10:47:25.393Z,15.07
2022-10-17T10:50:06.656Z,16.05
2022-10-17T10:52:45.694Z,16.15
2022-10-17T10:55:27.422Z,15.00
2022-10-17T10:58:00.450Z,15.45
2022-10-17T11:00:31.970Z,15.70
2022-10-17T11:03:12.721Z,15.05
2022-10-17T11:05:51.891Z,14.55
2022-10-17T11:08:42.788Z,15.35
2022-10-17T11:14:03.158Z,16.42
2022-10-17T11:16:55.498Z,15.45
2022-10-17T11:19:32.226Z,15.07
2022-10-17T11:22:15.919Z,13.10
2022-10-17T11:25:05.174Z,14.00
2022-10-17T11:27:34.349Z,13.23
2022-10-17T11:30:02.054Z,13.32
2022-10-17T11:32:44.816Z,15.13
2022-10-17T11:35:30.563Z,12.77
2022-10-17T11:38:22.591Z,13.70
2022-10-17T11:40:52.959Z,13.23
2022-10-17T11:43:38.143Z,13.30
2022-10-17T11:46:14.326Z,13.15
2022-10-17T11:48:59.026Z,13.25
2022-10-17T11:54:29.440Z,12.98
2022-10-17T11:57:35.123Z,14.02
2022-10-17T12:00:20.499Z,13.00
2022-10-17T12:03:26.315Z,13.70
2022-10-17T12:06:02.920Z,14.32
2022-10-17T12:08:45.414Z,14.30
2022-10-17T12:11:34.853Z,13.13
2022-10-17T12:14:05.902Z,14.10
2022-10-17T12:16:36.052Z,13.20
2022-10-17T12:19:03.268Z,14.53
2022-10-17T12:21:58.206Z,13.63
2022-10-17T12:24:41.366Z,15.00
2022-10-17T12:27:33.145Z,14.65
2022-10-17T12:30:21.987Z,13.80
2022-10-17T12:33:08.181Z,14.23
2022-10-17T12:35:37.851Z,14.23
2022-10-17T12:38:18.747Z,14.13
2022-10-17T12:40:49.061Z,13.98
2022-10-17T12:43:16.184Z,13.88
2022-10-17T12:45:48.231Z,13.70
2022-10-17T12:49:00.913Z,13.80
2022-10-17T12:51:35.689Z,14.25
2022-10-17T12:54:16.106Z,14.43
2022-10-17T12:56:47.427Z,14.15
2022-10-17T12:59:24.636Z,14.60
2022-10-17T13:01:56.654Z,13.85
2022-10-17T13:04:24.497Z,14.50
2022-10-17T13:06:54.859Z,14.05
2022-10-17T13:09:31.436Z,14.88
2022-10-17T13:12:03.151Z,13.95
2022-10-17T13:14:32.121Z,14.23
2022-10-17T13:17:05.151Z,13.30
2022-10-17T13:19:45.134Z,14.40
2022-10-17T13:22:17.332Z,14.00
2022-10-17T13:24:44.571Z,14.80
2022-10-17T13:27:25.566Z,14.77
2022-10-17T13:29:52.759Z,13.55
2022-10-17T13:32:19.743Z,13.35
2022-10-17T13:34:46.641Z,13.82
2022-10-17T13:37:16.064Z,14.18
2022-10-17T13:39:55.371Z,13.65
2022-10-17T13:42:27.821Z,13.68
2022-10-17T13:44:56.104Z,14.00
2022-10-17T13:47:29.883Z,14.50
2022-10-17T13:49:58.963Z,13.93
2022-10-17T13:52:28.923Z,14.27
2022-10-17T13:55:08.740Z,14.38
2022-10-17T13:57:35.850Z,14.05
2022-10-17T14:00:16.130Z,13.40
2022-10-17T14:02:43.358Z,12.95
2022-10-17T14:05:20.043Z,12.73
2022-10-17T14:08:21.826Z,14.10
2022-10-17T14:10:47.086Z,13.75
2022-10-17T14:13:27.018Z,14.38
2022-10-17T14:16:01.801Z,13.63
2022-10-17T14:18:36.157Z,14.23
2022-10-17T14:21:37.161Z,13.38
2022-10-17T14:24:11.834Z,14.55
2022-10-17T14:26:49.218Z,13.18
2022-10-17T14:29:24.675Z,15.13
2022-10-17T14:31:59.071Z,15.73
2022-10-17T14:34:34.777Z,17.38
2022-10-17T14:37:09.453Z,17.88
2022-10-17T14:39:36.588Z,17.67
2022-10-17T14:42:04.675Z,18.40
2022-10-17T14:44:34.370Z,21.15
2022-10-17T14:47:30.337Z,25.55
2022-10-17T14:50:02.822Z,21.97
2022-10-17T14:52:32.615Z,22.70
2022-10-17T14:55:12.461Z,22.80
2022-10-17T14:57:45.698Z,22.45
2022-10-17T15:00:17.804Z,28.40
2022-10-17T15:02:46.038Z,28.45
2022-10-17T15:05:14.376Z,29.42
2022-10-17T15:07:42.498Z,32.35
2022-10-17T15:10:27.765Z,36.65
2022-10-17T15:12:57.571Z,42.08
2022-10-17T15:15:33.067Z,48.97
2022-10-17T15:18:00.737Z,44.85
2022-10-17T15:20:30.517Z,49.08
2022-10-17T15:22:59.666Z,45.83
2022-10-17T15:25:27.659Z,50.33
2022-10-17T15:27:55.298Z,52.75
2022-10-17T15:30:34.862Z,55.45
2022-10-17T15:33:01.761Z,56.42
2022-10-17T15:35:29.379Z,49.00
2022-10-17T15:37:56.380Z,50.17
2022-10-17T15:40:29.611Z,49.42
2022-10-17T15:42:57.623Z,55.33
2022-10-17T15:45:25.398Z,58.83
2022-10-17T15:47:59.312Z,57.38
2022-10-17T15:50:26.302Z,60.05
2022-10-17T15:52:53.211Z,58.03
2022-10-17T15:55:20.395Z,57.83
2022-10-17T15:57:48.625Z,42.47
2022-10-17T16:00:22.327Z,39.45
2022-10-17T16:02:50.058Z,43.15
2022-10-17T16:05:20.220Z,39.90
2022-10-17T16:07:47.244Z,40.45
2022-10-17T16:10:14.676Z,32.85
2022-10-17T16:12:42.887Z,36.00
2022-10-17T16:15:15.610Z,36.85
2022-10-17T16:17:44.655Z,35.97
2022-10-17T16:20:13.331Z,35.22
2022-10-17T16:22:42.530Z,43.38
2022-10-17T16:25:24.222Z,48.45
2022-10-17T16:27:55.302Z,45.15
2022-10-17T16:30:23.950Z,53.55
2022-10-17T16:32:51.282Z,60.28
2022-10-17T16:35:27.223Z,53.85
2022-10-17T16:37:54.686Z,43.42
2022-10-17T16:40:21.656Z,42.97
2022-10-17T16:42:48.621Z,37.53
2022-10-17T16:45:25.783Z,35.40
2022-10-17T16:47:53.598Z,30.73
2022-10-17T16:50:21.114Z,27.70
2022-10-17T16:52:48.201Z,33.22
2022-10-17T16:55:15.359Z,30.27
2022-10-17T17:00:13.213Z,27.20
2022-10-17T17:02:40.391Z,28.10
2022-10-17T17:05:07.826Z,26.58
2022-10-17T17:07:34.903Z,24.92
2022-10-17T17:10:01.933Z,23.60
2022-10-17T17:12:28.948Z,22.27
2022-10-17T17:14:55.914Z,24.65
2022-10-17T17:17:37.076Z,22.08
2022-10-17T17:20:10.080Z,22.80
2022-10-17T17:22:37.077Z,23.92
2022-10-17T17:25:04.293Z,23.52
2022-10-17T17:27:31.490Z,22.23
2022-10-17T17:29:58.895Z,25.20
2022-10-17T17:32:25.848Z,24.02
2022-10-17T17:34:52.842Z,24.60
2022-10-17T17:37:19.817Z,25.98
2022-10-17T17:39:46.800Z,25.85
2022-10-17T17:42:13.760Z,26.33
2022-10-17T17:44:40.735Z,26.58
2022-10-17T17:47:07.797Z,25.45
2022-10-17T17:49:34.897Z,25.35
2022-10-17T17:54:48.565Z,28.52
2022-10-17T17:57:15.515Z,28.77
2022-10-17T17:59:42.505Z,26.17
2022-10-17T18:02:11.561Z,26.30
2022-10-17T18:04:38.509Z,29.08
2022-10-17T18:07:05.543Z,28.65
2022-10-17T18:09:32.484Z,29.55
2022-10-17T18:11:59.429Z,27.85
2022-10-17T18:14:26.563Z,27.95
2022-10-17T18:16:53.496Z,27.00
2022-10-17T18:19:20.559Z,25.05
2022-10-17T18:21:47.545Z,25.70
2022-10-17T18:24:14.506Z,26.95
2022-10-17T18:26:41.615Z,24.80
2022-10-17T18:29:08.571Z,24.73
2022-10-17T18:31:38.459Z,26.45
2022-10-17T18:34:06.185Z,24.40
2022-10-17T18:36:34.632Z,27.00
2022-10-17T18:39:02.378Z,24.98
2022-10-17T18:41:29.779Z,24.23
2022-10-17T18:43:57.390Z,25.98
2022-10-17T18:46:27.429Z,24.33
2022-10-17T18:48:54.844Z,23.77
2022-10-17T18:51:23.382Z,24.45
2022-10-17T18:53:53.037Z,25.67
2022-10-17T18:56:21.321Z,24.73
2022-10-17T18:58:48.309Z,23.45
2022-10-17T19:01:20.949Z,24.33
2022-10-17T19:03:49.767Z,23.60
2022-10-17T19:06:19.539Z,24.02
2022-10-17T19:08:47.447Z,22.27
2022-10-17T19:11:20.884Z,24.58
2022-10-17T19:13:48.676Z,23.88
2022-10-17T19:16:28.631Z,23.65
2022-10-17T19:19:04.125Z,25.77
2022-10-17T19:21:31.119Z,24.90
2022-10-17T19:24:01.665Z,24.08
2022-10-17T19:26:31.061Z,23.50
2022-10-17T19:28:58.070Z,24.17
2022-10-17T19:31:27.493Z,23.17
2022-10-17T19:33:56.344Z,23.65
2022-10-17T19:36:28.874Z,24.27
2022-10-17T19:38:59.562Z,24.10
2022-10-17T19:41:27.148Z,23.85
2022-10-17T19:43:54.242Z,25.27
2022-10-17T19:46:23.186Z,22.23
2022-10-17T19:48:51.205Z,24.10
2022-10-17T19:51:20.265Z,22.50
2022-10-17T19:53:48.106Z,23.48
2022-10-17T19:56:18.844Z,23.30
2022-10-17T20:01:22.204Z,24.13
2022-10-17T20:03:50.023Z,22.90
2022-10-17T20:06:17.744Z,27.40
2022-10-17T20:08:45.203Z,26.65
2022-10-17T20:11:15.028Z,25.30
2022-10-17T20:13:42.215Z,26.02
2022-10-17T20:16:14.149Z,24.25
2022-10-17T20:18:41.927Z,24.13
2022-10-17T20:21:12.505Z,24.15
2022-10-17T20:23:40.602Z,23.52
2022-10-17T20:26:26.020Z,24.05
2022-10-17T20:29:00.295Z,24.48
2022-10-17T20:31:27.344Z,25.92
2022-10-17T20:33:59.188Z,23.77
2022-10-17T20:36:29.278Z,26.15
2022-10-17T20:38:57.606Z,24.30
2022-10-17T20:41:25.582Z,22.88
2022-10-17T20:43:54.169Z,25.90
2022-10-17T20:46:35.939Z,24.90
2022-10-17T20:49:05.289Z,23.02
2022-10-17T20:51:32.582Z,24.85
2022-10-17T20:53:59.828Z,23.92
2022-10-17T20:56:30.379Z,24.92
2022-10-17T20:59:00.023Z,24.23
2022-10-17T21:01:28.507Z,23.98
2022-10-17T21:03:58.887Z,23.92
2022-10-17T21:06:27.876Z,24.17
2022-10-17T21:08:56.002Z,24.20
2022-10-17T21:11:26.301Z,22.98
2022-10-17T21:14:02.443Z,23.70
2022-10-17T21:16:30.894Z,24.52
2022-10-17T21:18:58.335Z,26.15
2022-10-17T21:21:34.947Z,28.52
2022-10-17T21:24:05.208Z,29.60
2022-10-17T21:26:33.897Z,26.80
2022-10-17T21:29:06.046Z,28.00
2022-10-17T21:31:35.592Z,31.67
2022-10-17T21:34:07.996Z,28.40
2022-10-17T21:36:35.010Z,28.17
2022-10-17T21:39:02.214Z,25.55
2022-10-17T21:41:30.009Z,24.60
2022-10-17T21:44:00.335Z,24.45
2022-10-17T21:46:27.847Z,25.88
2022-10-17T21:48:55.191Z,24.02
2022-10-17T21:51:24.707Z,23.20
2022-10-17T21:53:53.442Z,25.85
2022-10-17T21:56:23.623Z,25.02
2022-10-17T21:58:52.074Z,24.23
2022-10-17T22:01:25.119Z,27.02
2022-10-17T22:03:55.843Z,25.08
2022-10-17T22:06:39.322Z,27.00
2022-10-17T22:09:14.253Z,24.23
2022-10-17T22:11:41.662Z,27.10
2022-10-17T22:14:12.837Z,29.52
2022-10-17T22:16:40.620Z,29.50
2022-10-17T22:19:09.096Z,28.15
2022-10-17T22:21:38.007Z,35.60
2022-10-17T22:24:09.432Z,34.90
2022-10-17T22:26:38.211Z,32.13
2022-10-17T22:29:07.590Z,32.90
2022-10-17T22:31:35.477Z,33.90
2022-10-17T22:34:04.454Z,33.33
2022-10-17T22:36:32.684Z,32.70
2022-10-17T22:38:59.528Z,29.10
2022-10-17T22:41:26.481Z,29.00
2022-10-17T22:43:53.751Z,28.83
2022-10-17T22:46:20.755Z,25.05
2022-10-17T22:48:47.877Z,28.60
2022-10-17T22:51:15.355Z,27.88
2022-10-17T22:53:42.675Z,26.88
2022-10-17T22:56:20.583Z,27.50
2022-10-17T22:58:48.130Z,26.38
2022-10-17T23:01:18.252Z,26.98
2022-10-17T23:03:45.732Z,27.30
2022-10-17T23:06:12.918Z,25.15
2022-10-17T23:08:40.075Z,24.65
2022-10-17T23:11:07.718Z,23.58
2022-10-17T23:13:35.334Z,25.13
2022-10-17T23:16:02.595Z,24.70
2022-10-17T23:20:57.770Z,24.00
2022-10-17T23:23:24.874Z,25.80
2022-10-17T23:25:52.170Z,26.45
2022-10-17T23:28:19.270Z,30.23
2022-10-17T23:30:46.378Z,26.13
2022-10-17T23:33:14.114Z,28.60
2022-10-17T23:35:41.563Z,29.95
2022-10-17T23:38:08.809Z,30.05
2022-10-17T23:40:36.010Z,29.08
2022-10-17T23:43:04.479Z,28.67
2022-10-17T23:45:36.057Z,28.17
2022-10-17T23:48:05.385Z,25.05
2022-10-17T23:50:32.831Z,28.15
2022-10-17T23:52:59.807Z,27.75
2022-10-17T23:55:26.827Z,24.58
2022-10-17T23:57:53.805Z,25.35
